createdAt,value
2023-01-10T00:00:32.177Z,24.17
2023-01-10T00:02:58.926Z,18.07
2023-01-10T00:05:25.654Z,23.70
2023-01-10T00:07:52.315Z,23.80
2023-01-10T00:10:19.630Z,19.23
2023-01-10T00:13:05.145Z,24.60
2023-01-10T00:15:36.281Z,21.27
2023-01-10T00:18:03.623Z,23.03
2023-01-10T00:20:30.477Z,26.10
2023-01-10T00:22:57.624Z,26.97
2023-01-10T00:25:24.856Z,22.83
2023-01-10T00:28:01.796Z,21.03
2023-01-10T00:30:28.913Z,19.60
2023-01-10T00:32:56.731Z,21.33
2023-01-10T00:35:23.365Z,17.97
2023-01-10T00:37:50.499Z,24.30
2023-01-10T00:40:17.232Z,15.63
2023-01-10T00:43:02.367Z,21.80
2023-01-10T00:45:29.023Z,15.37
2023-01-10T00:47:55.871Z,19.30
2023-01-10T00:50:22.571Z,19.37
2023-01-10T00:52:49.269Z,19.57
2023-01-10T00:55:15.949Z,16.53
2023-01-10T00:57:42.597Z,21.93
2023-01-10T01:00:10.189Z,15.60
2023-01-10T01:02:36.851Z,15.33
2023-01-10T01:05:07.645Z,14.13
2023-01-10T01:07:34.417Z,35.20
2023-01-10T01:10:19.703Z,16.00
2023-01-10T01:12:46.391Z,10.97
2023-01-10T01:15:13.003Z,20.10
2023-01-10T01:17:39.759Z,11.50
2023-01-10T01:20:07.121Z,20.50
2023-01-10T01:22:34.057Z,16.80
2023-01-10T01:25:01.242Z,21.03
2023-01-10T01:27:27.927Z,21.50
2023-01-10T01:29:54.604Z,8.37
2023-01-10T01:32:21.909Z,15.40
2023-01-10T01:34:48.841Z,19.83
2023-01-10T01:37:16.386Z,14.70
2023-01-10T01:39:44.468Z,14.33
2023-01-10T01:42:32.942Z,16.50
2023-01-10T01:45:22.997Z,15.83
2023-01-10T01:47:58.273Z,16.47
2023-01-10T01:50:32.775Z,37.20
2023-01-10T01:53:01.865Z,16.43
2023-01-10T01:55:31.389Z,17.77
2023-01-10T01:58:00.534Z,21.13
2023-01-10T02:00:27.236Z,25.63
2023-01-10T02:03:02.705Z,16.23
2023-01-10T02:05:31.418Z,16.57
2023-01-10T02:08:02.006Z,18.30
2023-01-10T02:10:40.875Z,14.27
2023-01-10T02:13:11.508Z,19.10
2023-01-10T02:15:38.241Z,20.17
2023-01-10T02:18:05.267Z,15.37
2023-01-10T02:20:47.410Z,15.70
2023-01-10T02:23:22.249Z,16.67
2023-01-10T02:26:19.873Z,18.27
2023-01-10T02:29:14.370Z,17.27
2023-01-10T02:32:23.534Z,19.57
2023-01-10T02:35:26.225Z,12.83
2023-01-10T02:38:16.145Z,14.97
2023-01-10T02:40:55.379Z,23.30
2023-01-10T02:43:26.738Z,15.00
2023-01-10T02:46:05.339Z,15.43
2023-01-10T02:48:31.999Z,12.47
2023-01-10T02:51:22.570Z,20.77
2023-01-10T02:53:56.314Z,17.13
2023-01-10T02:56:34.761Z,13.87
2023-01-10T02:59:32.045Z,16.43
2023-01-10T03:02:23.010Z,17.77
2023-01-10T03:05:28.330Z,16.57
2023-01-10T03:08:07.778Z,16.70
2023-01-10T03:10:57.867Z,21.33
2023-01-10T03:13:33.913Z,19.90
2023-01-10T03:16:03.004Z,21.03
2023-01-10T03:18:45.987Z,19.00
2023-01-10T03:21:13.331Z,16.30
2023-01-10T03:23:40.714Z,20.37
2023-01-10T03:26:09.964Z,17.40
2023-01-10T03:28:55.754Z,15.50
2023-01-10T03:31:30.049Z,16.30
2023-01-10T03:33:56.836Z,24.97
2023-01-10T03:36:43.143Z,27.37
2023-01-10T03:39:22.918Z,19.43
2023-01-10T03:41:59.199Z,17.77
2023-01-10T03:44:44.060Z,22.90
2023-01-10T03:47:27.960Z,24.00
2023-01-10T03:49:59.874Z,23.33
2023-01-10T03:52:27.125Z,28.80
2023-01-10T03:54:54.037Z,19.63
2023-01-10T03:57:23.335Z,19.67
2023-01-10T03:59:55.384Z,17.53
2023-01-10T04:02:22.084Z,21.03
2023-01-10T04:04:48.741Z,19.10
2023-01-10T04:07:15.381Z,20.47
2023-01-10T04:09:42.032Z,19.33
2023-01-10T04:12:08.703Z,19.00
2023-01-10T04:14:35.468Z,25.13
2023-01-10T04:17:02.240Z,17.90
2023-01-10T04:19:28.872Z,20.10
2023-01-10T04:21:55.651Z,17.40
2023-01-10T04:24:22.343Z,18.23
2023-01-10T04:26:49.068Z,24.10
2023-01-10T04:29:15.775Z,20.17
2023-01-10T04:31:42.565Z,18.73
2023-01-10T04:34:10.034Z,17.47
2023-01-10T04:36:36.965Z,21.50
2023-01-10T04:39:04.528Z,18.93
2023-01-10T04:41:31.221Z,16.70
2023-01-10T04:43:58.041Z,26.93
2023-01-10T04:46:24.737Z,21.83
2023-01-10T04:48:51.550Z,23.03
2023-01-10T04:51:18.367Z,19.27
2023-01-10T04:53:45.209Z,19.40
2023-01-10T04:56:18.376Z,25.37
2023-01-10T04:58:45.339Z,16.57
2023-01-10T05:01:17.291Z,18.53
2023-01-10T05:03:44.413Z,23.73
2023-01-10T05:06:11.093Z,19.97
2023-01-10T05:08:37.756Z,19.97
2023-01-10T05:11:04.609Z,20.83
2023-01-10T05:13:31.288Z,23.93
2023-01-10T05:15:58.744Z,22.87
2023-01-10T05:18:26.584Z,28.10
2023-01-10T05:20:53.541Z,26.67
2023-01-10T05:23:20.246Z,22.43
2023-01-10T05:25:46.899Z,17.20
2023-01-10T05:28:13.553Z,26.07
2023-01-10T05:30:40.192Z,22.80
2023-01-10T05:33:07.102Z,19.70
2023-01-10T05:35:34.659Z,22.63
2023-01-10T05:38:01.325Z,21.53
2023-01-10T05:40:28.043Z,16.30
2023-01-10T05:42:54.750Z,27.83
2023-01-10T05:45:21.541Z,19.53
2023-01-10T05:47:48.451Z,25.23
2023-01-10T05:50:15.472Z,21.47
2023-01-10T05:52:42.219Z,17.10
2023-01-10T05:55:09.080Z,21.80
2023-01-10T05:57:35.762Z,30.43
2023-01-10T06:00:05.263Z,23.93
2023-01-10T06:02:32.628Z,32.63
2023-01-10T06:04:59.588Z,20.17
2023-01-10T06:07:26.322Z,20.03
2023-01-10T06:09:53.081Z,24.37
2023-01-10T06:12:19.732Z,24.00
2023-01-10T06:14:46.392Z,22.10
2023-01-10T06:17:13.103Z,26.77
2023-01-10T06:19:39.875Z,31.10
2023-01-10T06:22:06.522Z,24.77
2023-01-10T06:24:33.204Z,24.67
2023-01-10T06:26:59.949Z,39.37
2023-01-10T06:29:26.579Z,23.40
2023-01-10T06:31:53.228Z,29.10
2023-01-10T06:34:19.870Z,27.60
2023-01-10T06:36:46.543Z,29.13
2023-01-10T06:39:13.181Z,28.10
2023-01-10T06:41:39.877Z,28.43
2023-01-10T06:44:06.658Z,19.70
2023-01-10T06:46:33.384Z,26.10
2023-01-10T06:49:00.130Z,22.97
2023-01-10T06:51:26.915Z,16.03
2023-01-10T06:53:53.607Z,29.37
2023-01-10T06:56:20.282Z,22.23
2023-01-10T06:58:49.900Z,23.80
2023-01-10T07:01:20.355Z,34.53
2023-01-10T07:03:48.266Z,24.53
2023-01-10T07:06:15.248Z,27.77
2023-01-10T07:08:44.908Z,21.70
2023-01-10T07:11:13.535Z,28.00
2023-01-10T07:13:40.785Z,29.90
2023-01-10T07:16:10.622Z,26.93
2023-01-10T07:18:39.073Z,25.33
2023-01-10T07:21:06.450Z,32.30
2023-01-10T07:23:33.454Z,31.33
2023-01-10T07:26:09.716Z,28.23
2023-01-10T07:28:36.677Z,23.77
2023-01-10T07:31:10.384Z,30.80
2023-01-10T07:33:37.365Z,28.37
2023-01-10T07:36:04.273Z,25.67
2023-01-10T07:38:33.686Z,25.90
2023-01-10T07:41:03.553Z,31.60
2023-01-10T07:43:30.791Z,37.10
2023-01-10T07:46:01.669Z,32.20
2023-01-10T07:48:28.683Z,27.13
2023-01-10T07:50:57.501Z,27.10
2023-01-10T07:53:25.270Z,25.13
2023-01-10T07:55:53.716Z,32.43
2023-01-10T07:58:20.675Z,38.17
2023-01-10T08:00:49.416Z,34.10
2023-01-10T08:03:18.613Z,28.60
2023-01-10T08:05:45.358Z,35.87
2023-01-10T08:08:12.956Z,33.67
2023-01-10T08:10:46.022Z,34.37
2023-01-10T08:13:18.808Z,35.77
2023-01-10T08:15:47.343Z,32.43
2023-01-10T08:18:14.325Z,25.60
2023-01-10T08:20:41.382Z,32.80
2023-01-10T08:23:10.859Z,36.80
2023-01-10T08:25:39.540Z,35.33
2023-01-10T08:28:06.580Z,34.37
2023-01-10T08:30:33.322Z,26.90
2023-01-10T08:33:03.429Z,29.00
2023-01-10T08:35:37.391Z,34.40
2023-01-10T08:38:04.116Z,32.83
2023-01-10T08:40:30.767Z,36.93
2023-01-10T08:43:02.150Z,30.57
2023-01-10T08:45:29.292Z,26.50
2023-01-10T08:47:55.967Z,36.57
2023-01-10T08:50:23.029Z,33.63
2023-01-10T08:52:51.075Z,37.17
2023-01-10T08:55:18.966Z,28.67
2023-01-10T08:57:45.643Z,32.13
2023-01-10T09:00:13.180Z,42.67
2023-01-10T09:02:40.554Z,28.77
2023-01-10T09:05:15.028Z,25.27
2023-01-10T09:07:48.804Z,28.93
2023-01-10T09:10:15.586Z,32.57
2023-01-10T09:12:57.500Z,28.10
2023-01-10T09:15:32.720Z,19.70
2023-01-10T09:18:03.442Z,28.43
2023-01-10T09:20:30.493Z,25.87
2023-01-10T09:22:58.466Z,22.47
2023-01-10T09:25:25.806Z,24.57
2023-01-10T09:28:08.396Z,27.33
2023-01-10T09:30:35.671Z,25.73
2023-01-10T09:33:03.367Z,17.97
2023-01-10T09:35:31.443Z,26.67
2023-01-10T09:38:01.263Z,20.03
2023-01-10T09:40:49.715Z,19.77
2023-01-10T09:43:41.560Z,22.63
2023-01-10T09:46:39.853Z,22.47
2023-01-10T09:49:25.423Z,36.67
2023-01-10T09:51:59.217Z,24.63
2023-01-10T09:54:30.268Z,23.83
2023-01-10T09:56:59.136Z,18.73
2023-01-10T09:59:31.479Z,21.87
2023-01-10T10:02:06.929Z,21.57
2023-01-10T10:04:37.132Z,36.00
2023-01-10T10:07:08.500Z,24.30
2023-01-10T10:09:35.436Z,28.23
2023-01-10T10:12:29.173Z,21.73
2023-01-10T10:15:21.905Z,23.20
2023-01-10T10:18:29.863Z,19.97
2023-01-10T10:21:31.347Z,23.97
2023-01-10T10:24:06.938Z,20.87
2023-01-10T10:26:37.825Z,23.50
2023-01-10T10:29:26.097Z,19.37
2023-01-10T10:32:30.712Z,18.60
2023-01-10T10:35:08.061Z,20.50
2023-01-10T10:37:45.362Z,23.13
2023-01-10T10:40:15.005Z,24.40
2023-01-10T10:42:47.233Z,21.97
2023-01-10T10:45:43.161Z,25.30
2023-01-10T10:48:17.945Z,20.40
2023-01-10T10:51:07.612Z,23.37
2023-01-10T10:53:35.290Z,27.27
2023-01-10T10:56:04.233Z,21.60
2023-01-10T10:58:34.162Z,24.10
2023-01-10T11:01:01.411Z,19.03
2023-01-10T11:03:48.205Z,21.97
2023-01-10T11:06:20.103Z,28.07
2023-01-10T11:08:50.216Z,23.20
2023-01-10T11:11:40.085Z,27.57
2023-01-10T11:14:08.446Z,20.90
2023-01-10T11:16:39.033Z,28.37
2023-01-10T11:19:16.647Z,15.00
2023-01-10T11:22:07.401Z,21.50
2023-01-10T11:24:38.086Z,22.83
2023-01-10T11:27:16.027Z,21.13
2023-01-10T11:29:52.506Z,29.30
2023-01-10T11:32:23.074Z,21.47
2023-01-10T11:34:59.214Z,18.40
2023-01-10T11:37:34.265Z,26.87
2023-01-10T11:40:18.377Z,26.50
2023-01-10T11:42:46.046Z,21.40
2023-01-10T11:45:18.851Z,23.83
2023-01-10T11:48:05.817Z,22.17
2023-01-10T11:50:35.323Z,19.30
2023-01-10T11:53:02.315Z,25.50
2023-01-10T11:55:36.299Z,29.33
2023-01-10T11:58:08.805Z,24.57
2023-01-10T12:00:37.960Z,16.77
2023-01-10T12:03:36.858Z,27.77
2023-01-10T12:06:09.029Z,24.83
2023-01-10T12:08:37.888Z,28.00
2023-01-10T12:11:30.137Z,20.13
2023-01-10T12:14:00.081Z,25.13
2023-01-10T12:16:29.806Z,18.57
2023-01-10T12:19:02.788Z,19.13
2023-01-10T12:21:43.994Z,25.97
2023-01-10T12:24:30.552Z,20.43
2023-01-10T12:26:57.756Z,17.97
2023-01-10T12:29:29.440Z,23.97
2023-01-10T12:31:58.421Z,24.80
2023-01-10T12:34:41.582Z,27.60
2023-01-10T12:37:26.465Z,20.30
2023-01-10T12:40:02.167Z,21.30
2023-01-10T12:43:22.407Z,19.93
2023-01-10T12:45:53.843Z,22.60
2023-01-10T12:48:33.966Z,15.40
2023-01-10T12:51:06.149Z,22.20
2023-01-10T12:53:41.238Z,17.87
2023-01-10T12:56:13.630Z,13.57
2023-01-10T12:58:47.435Z,26.60
2023-01-10T13:01:17.475Z,17.47
2023-01-10T13:03:50.286Z,19.80
2023-01-10T13:06:30.413Z,19.60
2023-01-10T13:08:59.707Z,22.23
2023-01-10T13:11:30.987Z,16.97
2023-01-10T13:14:02.515Z,27.53
2023-01-10T13:16:52.570Z,19.67
2023-01-10T13:19:21.456Z,19.57
2023-01-10T13:21:48.358Z,23.30
2023-01-10T13:24:15.022Z,18.47
2023-01-10T13:26:59.636Z,19.83
2023-01-10T13:29:41.686Z,26.97
2023-01-10T13:32:24.711Z,20.20
2023-01-10T13:34:52.103Z,22.67
2023-01-10T13:37:25.756Z,26.70
2023-01-10T13:39:57.773Z,25.90
2023-01-10T13:42:53.267Z,16.33
2023-01-10T13:45:21.042Z,23.10
2023-01-10T13:47:57.078Z,17.90
2023-01-10T13:50:24.006Z,22.33
2023-01-10T13:52:54.512Z,22.83
2023-01-10T13:55:53.541Z,11.87
2023-01-10T13:58:41.678Z,23.53
2023-01-10T14:01:49.078Z,21.17
2023-01-10T14:04:33.553Z,18.20
2023-01-10T14:07:04.647Z,16.37
2023-01-10T14:09:36.340Z,14.70
2023-01-10T14:12:16.747Z,23.60
2023-01-10T14:14:57.847Z,23.27
2023-01-10T14:17:29.076Z,21.83
2023-01-10T14:20:10.105Z,15.30
2023-01-10T14:22:38.604Z,13.90
2023-01-10T14:25:20.764Z,18.60
2023-01-10T14:27:50.836Z,15.80
2023-01-10T14:30:26.355Z,21.30
2023-01-10T14:32:57.846Z,15.30
2023-01-10T14:35:32.747Z,21.27
2023-01-10T14:38:03.045Z,19.13
2023-01-10T14:40:41.035Z,24.53
2023-01-10T14:43:19.347Z,21.57
2023-01-10T14:45:59.133Z,21.23
2023-01-10T14:48:34.329Z,23.90
2023-01-10T14:51:21.630Z,16.83
2023-01-10T14:53:59.728Z,24.93
2023-01-10T14:56:30.329Z,24.50
2023-01-10T14:58:57.094Z,15.70
2023-01-10T15:01:27.881Z,22.13
2023-01-10T15:03:55.243Z,21.90
2023-01-10T15:06:21.974Z,24.93
2023-01-10T15:08:59.912Z,12.50
2023-01-10T15:11:27.822Z,16.33
2023-01-10T15:14:00.516Z,16.27
2023-01-10T15:16:28.684Z,19.17
2023-01-10T15:18:56.650Z,24.73
2023-01-10T15:21:24.442Z,21.33
2023-01-10T15:23:51.296Z,31.73
2023-01-10T15:26:29.185Z,17.73
2023-01-10T15:29:09.876Z,14.53
2023-01-10T15:31:38.348Z,25.97
2023-01-10T15:34:28.745Z,22.80
2023-01-10T15:36:58.020Z,15.27
2023-01-10T15:39:34.965Z,17.43
2023-01-10T15:42:11.345Z,18.40
2023-01-10T15:44:52.310Z,17.10
2023-01-10T15:47:37.994Z,19.20
2023-01-10T15:50:28.806Z,19.50
2023-01-10T15:53:10.179Z,14.77
2023-01-10T15:55:50.727Z,21.90
2023-01-10T15:58:35.924Z,18.80
2023-01-10T16:01:04.585Z,24.43
2023-01-10T16:03:37.460Z,14.43
2023-01-10T16:06:11.796Z,22.10
2023-01-10T16:08:39.108Z,21.77
2023-01-10T16:11:08.743Z,19.43
2023-01-10T16:13:37.385Z,14.57
2023-01-10T16:16:15.489Z,14.20
2023-01-10T16:18:42.350Z,15.00
2023-01-10T16:21:11.528Z,17.40
2023-01-10T16:23:46.896Z,14.07
2023-01-10T16:26:14.842Z,17.23
2023-01-10T16:28:41.723Z,13.40
2023-01-10T16:31:14.439Z,19.63
2023-01-10T16:33:42.077Z,13.03
2023-01-10T16:36:17.710Z,21.83
2023-01-10T16:38:44.918Z,17.10
2023-01-10T16:41:31.818Z,14.57
2023-01-10T16:43:58.727Z,17.83
2023-01-10T16:46:25.702Z,14.47
2023-01-10T16:48:53.358Z,12.87
2023-01-10T16:51:22.784Z,20.07
2023-01-10T16:53:50.416Z,11.97
2023-01-10T16:56:23.320Z,13.47
2023-01-10T16:58:51.451Z,9.00
2023-01-10T17:01:21.466Z,13.60
2023-01-10T17:03:48.335Z,15.50
2023-01-10T17:06:15.851Z,10.10
2023-01-10T17:08:44.672Z,10.13
2023-01-10T17:11:21.133Z,13.13
2023-01-10T17:13:48.457Z,15.90
2023-01-10T17:16:19.346Z,11.10
2023-01-10T17:18:46.802Z,13.83
2023-01-10T17:21:19.397Z,12.43
2023-01-10T17:23:47.074Z,7.23
2023-01-10T17:26:16.118Z,11.13
2023-01-10T17:28:44.781Z,7.30
2023-01-10T17:31:11.634Z,8.03
2023-01-10T17:33:38.369Z,10.03
2023-01-10T17:36:05.296Z,10.20
2023-01-10T17:38:31.964Z,9.50
2023-01-10T17:41:02.940Z,8.27
2023-01-10T17:43:31.102Z,8.13
2023-01-10T17:46:00.932Z,11.67
2023-01-10T17:48:27.785Z,9.07
2023-01-10T17:50:59.704Z,9.57
2023-01-10T17:53:27.172Z,7.27
2023-01-10T17:55:54.172Z,7.67
2023-01-10T17:58:21.550Z,7.77
2023-01-10T18:00:49.069Z,8.10
2023-01-10T18:03:16.451Z,6.73
2023-01-10T18:05:54.259Z,7.60
2023-01-10T18:08:21.875Z,4.43
2023-01-10T18:10:49.337Z,12.17
2023-01-10T18:13:18.216Z,6.57
2023-01-10T18:15:49.381Z,7.43
2023-01-10T18:18:16.788Z,8.53
2023-01-10T18:20:44.679Z,5.23
2023-01-10T18:23:21.648Z,8.37
2023-01-10T18:25:56.874Z,5.27
2023-01-10T18:28:39.562Z,7.93
2023-01-10T18:31:12.198Z,8.73
2023-01-10T18:33:39.214Z,6.83
2023-01-10T18:36:08.439Z,7.63
2023-01-10T18:38:36.442Z,11.17
2023-01-10T18:41:03.629Z,6.60
2023-01-10T18:43:33.090Z,6.60
2023-01-10T18:46:06.459Z,6.57
2023-01-10T18:48:33.532Z,9.13
2023-01-10T18:51:01.600Z,8.97
2023-01-10T18:53:28.765Z,8.73
2023-01-10T18:56:04.546Z,10.20
2023-01-10T18:58:33.848Z,12.57
2023-01-10T19:01:27.108Z,11.07
2023-01-10T19:03:53.851Z,13.77
2023-01-10T19:06:22.604Z,14.57
2023-01-10T19:08:52.502Z,10.87
2023-01-10T19:11:19.538Z,11.77
2023-01-10T19:13:47.587Z,11.57
2023-01-10T19:16:20.623Z,12.97
2023-01-10T19:18:53.132Z,12.80
2023-01-10T19:21:21.941Z,12.70
2023-01-10T19:23:51.218Z,11.43
2023-01-10T19:26:18.402Z,13.23
2023-01-10T19:28:46.028Z,12.23
2023-01-10T19:31:21.229Z,10.90
2023-01-10T19:33:48.310Z,13.23
2023-01-10T19:36:17.792Z,11.13
2023-01-10T19:38:45.084Z,10.87
2023-01-10T19:41:14.409Z,12.17
2023-01-10T19:43:41.168Z,11.13
2023-01-10T19:46:10.302Z,11.97
2023-01-10T19:48:38.386Z,9.37
2023-01-10T19:51:10.747Z,11.83
2023-01-10T19:53:41.998Z,12.17
2023-01-10T19:56:10.103Z,10.47
2023-01-10T19:58:38.544Z,9.30
2023-01-10T20:01:16.825Z,10.07
2023-01-10T20:03:46.512Z,9.53
2023-01-10T20:06:17.047Z,9.03
2023-01-10T20:08:47.600Z,9.47
2023-01-10T20:11:15.532Z,15.93
2023-01-10T20:13:48.207Z,8.87
2023-01-10T20:16:17.736Z,10.17
2023-01-10T20:18:45.334Z,11.83
2023-01-10T20:21:14.829Z,12.87
2023-01-10T20:23:42.144Z,8.33
2023-01-10T20:26:13.319Z,10.60
2023-01-10T20:28:43.803Z,11.23
2023-01-10T20:31:15.498Z,10.60
2023-01-10T20:33:42.446Z,10.33
2023-01-10T20:36:12.837Z,10.50
2023-01-10T20:38:40.233Z,8.50
2023-01-10T20:41:13.721Z,10.43
2023-01-10T20:43:43.890Z,9.37
2023-01-10T20:46:13.316Z,10.87
2023-01-10T20:48:43.578Z,10.77
2023-01-10T20:51:20.682Z,10.40
2023-01-10T20:53:48.912Z,10.83
2023-01-10T20:56:18.054Z,11.33
2023-01-10T20:58:44.848Z,11.13
2023-01-10T21:01:25.004Z,9.13
2023-01-10T21:03:56.032Z,10.10
2023-01-10T21:06:22.880Z,9.90
2023-01-10T21:08:50.536Z,10.13
2023-01-10T21:11:20.499Z,9.60
2023-01-10T21:13:47.529Z,10.93
2023-01-10T21:16:17.657Z,8.13
2023-01-10T21:18:44.925Z,11.40
2023-01-10T21:21:13.293Z,11.37
2023-01-10T21:23:40.394Z,8.40
2023-01-10T21:26:12.239Z,9.70
2023-01-10T21:28:46.749Z,13.47
2023-01-10T21:31:19.387Z,11.50
2023-01-10T21:33:49.042Z,9.40
2023-01-10T21:36:18.756Z,8.57
2023-01-10T21:38:45.769Z,10.23
2023-01-10T21:41:14.810Z,10.40
2023-01-10T21:43:46.052Z,10.87
2023-01-10T21:46:13.030Z,9.07
2023-01-10T21:48:39.885Z,8.67
2023-01-10T21:51:07.745Z,9.00
2023-01-10T21:53:34.499Z,10.30
2023-01-10T21:56:01.191Z,7.40
2023-01-10T21:58:27.950Z,9.77
2023-01-10T22:01:01.433Z,9.40
2023-01-10T22:03:28.196Z,6.80
2023-01-10T22:05:54.957Z,8.90
2023-01-10T22:08:25.353Z,9.53
2023-01-10T22:10:52.015Z,6.00
2023-01-10T22:13:24.114Z,6.90
2023-01-10T22:15:58.133Z,8.60
2023-01-10T22:18:25.129Z,7.20
2023-01-10T22:20:57.086Z,6.20
2023-01-10T22:23:27.492Z,5.70
2023-01-10T22:26:05.401Z,6.90
2023-01-10T22:28:32.742Z,6.10
2023-01-10T22:31:00.062Z,7.20
2023-01-10T22:33:32.056Z,6.83
2023-01-10T22:36:06.733Z,6.70
2023-01-10T22:38:34.062Z,8.50
2023-01-10T22:41:08.995Z,5.70
2023-01-10T22:43:36.190Z,8.03
2023-01-10T22:46:03.519Z,7.20
2023-01-10T22:48:30.277Z,7.33
2023-01-10T22:50:59.309Z,9.10
2023-01-10T22:53:27.357Z,10.00
2023-01-10T22:56:03.351Z,7.73
2023-01-10T22:58:30.488Z,8.67
2023-01-10T23:03:41.459Z,10.70
2023-01-10T23:06:08.473Z,10.70
2023-01-10T23:08:35.510Z,10.60
2023-01-10T23:11:02.462Z,10.77
2023-01-10T23:13:30.045Z,10.97
2023-01-10T23:16:08.357Z,8.77
2023-01-10T23:18:35.477Z,11.87
2023-01-10T23:21:02.385Z,9.87
2023-01-10T23:23:29.430Z,10.53
2023-01-10T23:26:01.817Z,11.07
2023-01-10T23:28:37.881Z,10.43
2023-01-10T23:31:06.880Z,8.90
2023-01-10T23:33:34.242Z,13.17
2023-01-10T23:36:01.573Z,13.60
2023-01-10T23:38:31.388Z,10.40
2023-01-10T23:40:58.281Z,12.30
2023-01-10T23:43:25.091Z,10.60
2023-01-10T23:45:52.056Z,11.27
2023-01-10T23:48:18.983Z,13.17
2023-01-10T23:50:49.869Z,12.57
2023-01-10T23:53:17.588Z,12.83
2023-01-10T23:55:47.088Z,10.00
2023-01-10T23:58:13.858Z,9.93
